Canadian Transport — VCLX — position and weather

sailwx.info

Track history (hours):
 
Tides and Currents Weather Stations Pressure Air Temp Water Temp Dewpoint Dewpoint Depression Visibility Wind Speed Wind Dir Waves Ship Positions

Canadian Transport

Last reported at 2017-Dec-15 16:26 UTC. Time now 2017-Dec-17 23:24 UTC.
Position N 45°45' W 083°42'.

Length 223 m; draft 6.8 m.

Type: Cargo ship. MMSI: 316001698.

Date/timePositionNaut miles runAvg speedWind from/ knotsBaromVisibWave heightAir tempDewpointWater temp
2017-Dec-15 16:26N 45°45' W 083°42'512.5
2017-Dec-15 16:00N 45°41' W 083°38'612.5
2017-Dec-15 15:30N 45°36' W 083°33'510.7
2017-Dec-15 15:00N 45°31' W 083°28'  
2017-Dec-11 03:10N 45°14' W 074°09'1 8.0
2017-Dec-11 03:01N 45°14' W 074°07'4 7.1
2017-Dec-11 02:30N 45°13' W 074°02'4 7.8
2017-Dec-11 01:59N 45°16' W 073°58'3 6.0
2017-Dec-11 01:30N 45°18' W 073°56'0 0.4
2017-Dec-11 01:00N 45°18' W 073°56'1 1.1
2017-Dec-11 00:30N 45°19' W 073°55'0 0.4
2017-Dec-11 00:00N 45°19' W 073°55'0 0.0
2017-Dec-10 23:30N 45°19' W 073°55'0 0.0
2017-Dec-10 23:00N 45°19' W 073°55'0 0.5
2017-Dec-10 22:30N 45°19' W 073°55'1 2.3
2017-Dec-10 22:00N 45°20' W 073°54'4 8.3
2017-Dec-10 21:30N 45°23' W 073°49'4 7.6
2017-Dec-10 21:00N 45°24' W 073°44'3 6.0
2017-Dec-10 20:30N 45°25' W 073°40'3 5.5
2017-Dec-10 20:00N 45°24' W 073°36'2 3.2
2017-Dec-10 19:30N 45°24' W 073°34'0 0.5
2017-Dec-10 19:00N 45°24' W 073°33'1 2.9
2017-Dec-10 18:30N 45°25' W 073°31'3 5.6
2017-Dec-10 18:00N 45°27' W 073°30'3 2.4
2017-Dec-10 16:52N 45°30' W 073°31'1 2.7
2017-Dec-10 16:27N 45°31' W 073°31'  
Track history (hours):
 
Tides and Currents Weather Stations Pressure Air Temp Water Temp Dewpoint Dewpoint Depression Visibility Wind Speed Wind Dir Waves Ship Positions

Canadian Transport

Last reported at 2017-Dec-15 16:26 UTC. Time now 2017-Dec-17 23:24 UTC.
Position N 45°45' W 083°42'.

Length 223 m; draft 6.8 m.

Type: Cargo ship. MMSI: 316001698.

Date/timePositionNaut miles runAvg speedWind from/ knotsBaromVisibWave heightAir tempDewpointWater temp
2017-Dec-15 16:26N 45°45' W 083°42'512.5
2017-Dec-15 16:00N 45°41' W 083°38'612.5
2017-Dec-15 15:30N 45°36' W 083°33'510.7
2017-Dec-15 15:00N 45°31' W 083°28'  
2017-Dec-11 03:10N 45°14' W 074°09'1 8.0
2017-Dec-11 03:01N 45°14' W 074°07'4 7.1
2017-Dec-11 02:30N 45°13' W 074°02'4 7.8
2017-Dec-11 01:59N 45°16' W 073°58'3 6.0
2017-Dec-11 01:30N 45°18' W 073°56'0 0.4
2017-Dec-11 01:00N 45°18' W 073°56'1 1.1
2017-Dec-11 00:30N 45°19' W 073°55'0 0.4
2017-Dec-11 00:00N 45°19' W 073°55'0 0.0
2017-Dec-10 23:30N 45°19' W 073°55'0 0.0
2017-Dec-10 23:00N 45°19' W 073°55'0 0.5
2017-Dec-10 22:30N 45°19' W 073°55'1 2.3
2017-Dec-10 22:00N 45°20' W 073°54'4 8.3
2017-Dec-10 21:30N 45°23' W 073°49'4 7.6
2017-Dec-10 21:00N 45°24' W 073°44'3 6.0
2017-Dec-10 20:30N 45°25' W 073°40'3 5.5
2017-Dec-10 20:00N 45°24' W 073°36'2 3.2
2017-Dec-10 19:30N 45°24' W 073°34'0 0.5
2017-Dec-10 19:00N 45°24' W 073°33'1 2.9
2017-Dec-10 18:30N 45°25' W 073°31'3 5.6
2017-Dec-10 18:00N 45°27' W 073°30'3 2.4
2017-Dec-10 16:52N 45°30' W 073°31'1 2.7
2017-Dec-10 16:27N 45°31' W 073°31'  

Dump ship's entire track history